Priwall — V2OX8 — position and weather

sailwx.info

Track history (hours):
 
Tides and Currents Weather Stations Pressure Air Temp Water Temp Dewpoint Dewpoint Depression Visibility Wind Speed Wind Dir Waves Ship Positions

Priwall

Last reported at 2015-Aug-28 18:14 UTC. Time now 2015-Aug-28 19:18 UTC.
Position N 36°48' E 001°08'.

Length 88 m; draft 5.5 m.

Type: Ship. MMSI: 304739000.

Date/timePositionNaut miles runAvg speedWind from/ knotsBaromVisibWave heightAir tempDewpointWater temp
2015-Aug-28 18:14N 36°48' E 001°08'6 9.3
2015-Aug-28 17:33N 36°49' E 001°16'31 9.1
2015-Aug-28 14:12N 36°52' E 001°54'116 8.5
2015-Aug-28 00:31N 37°09' E 004°18'9 9.4
2015-Aug-27 23:33N 37°10' E 004°29'10 8.9
2015-Aug-27 22:27N 37°11' E 004°42'51 8.7
2015-Aug-27 16:33N 37°18' E 005°45'9 9.1
2015-Aug-27 15:32N 37°20' E 005°57'20 9.2
2015-Aug-27 13:23N 37°22' E 006°21'154 9.1
2015-Aug-26 20:33N 37°38' E 009°34'31 9.2
2015-Aug-26 17:13N 37°39' E 010°13'6 8.9
2015-Aug-26 16:33N 37°38' E 010°20'113 9.1
2015-Aug-26 04:07N 37°03' E 012°36'5 8.5
2015-Aug-26 03:33N 37°01' E 012°41'9 8.7
2015-Aug-26 02:33N 36°59' E 012°52'8 8.4
2015-Aug-26 01:33N 36°56' E 013°02'8 8.4
2015-Aug-26 00:33N 36°53' E 013°11'9 8.6
2015-Aug-25 23:33N 36°49' E 013°21'9 8.7
2015-Aug-25 22:33N 36°45' E 013°31'8 8.5
2015-Aug-25 21:34N 36°42' E 013°41'9 8.4
2015-Aug-25 20:33N 36°40' E 013°51'8 8.5
2015-Aug-25 19:33N 36°37' E 014°01'9 8.7
2015-Aug-25 18:31N 36°34' E 014°12'8 8.7
2015-Aug-25 17:33N 36°32' E 014°21'9 8.5
2015-Aug-25 16:33N 36°30' E 014°32'8 8.2
2015-Aug-25 15:33N 36°30' E 014°42'8 8.2
2015-Aug-25 14:33N 36°29' E 014°52'8 8.2
2015-Aug-25 13:33N 36°29' E 015°02'8 8.2
2015-Aug-25 12:33N 36°28' E 015°13'8 8.3
2015-Aug-25 11:33N 36°28' E 015°23'8 8.3
2015-Aug-25 10:33N 36°28' E 015°33'8 8.4
2015-Aug-25 09:33N 36°28' E 015°44'10 8.9
2015-Aug-25 08:23N 36°28' E 015°57'  
2015-Aug-21 15:33N 40°58' E 028°56'0 0.0
2015-Aug-21 14:05N 40°58' E 028°56'3 3.9
2015-Aug-21 13:24N 40°59' E 028°59'  
Track history (hours):
 
Tides and Currents Weather Stations Pressure Air Temp Water Temp Dewpoint Dewpoint Depression Visibility Wind Speed Wind Dir Waves Ship Positions

Priwall

Last reported at 2015-Aug-28 18:14 UTC. Time now 2015-Aug-28 19:18 UTC.
Position N 36°48' E 001°08'.

Length 88 m; draft 5.5 m.

Type: Ship. MMSI: 304739000.

Date/timePositionNaut miles runAvg speedWind from/ knotsBaromVisibWave heightAir tempDewpointWater temp
2015-Aug-28 18:14N 36°48' E 001°08'6 9.3
2015-Aug-28 17:33N 36°49' E 001°16'31 9.1
2015-Aug-28 14:12N 36°52' E 001°54'116 8.5
2015-Aug-28 00:31N 37°09' E 004°18'9 9.4
2015-Aug-27 23:33N 37°10' E 004°29'10 8.9
2015-Aug-27 22:27N 37°11' E 004°42'51 8.7
2015-Aug-27 16:33N 37°18' E 005°45'9 9.1
2015-Aug-27 15:32N 37°20' E 005°57'20 9.2
2015-Aug-27 13:23N 37°22' E 006°21'154 9.1
2015-Aug-26 20:33N 37°38' E 009°34'31 9.2
2015-Aug-26 17:13N 37°39' E 010°13'6 8.9
2015-Aug-26 16:33N 37°38' E 010°20'113 9.1
2015-Aug-26 04:07N 37°03' E 012°36'5 8.5
2015-Aug-26 03:33N 37°01' E 012°41'9 8.7
2015-Aug-26 02:33N 36°59' E 012°52'8 8.4
2015-Aug-26 01:33N 36°56' E 013°02'8 8.4
2015-Aug-26 00:33N 36°53' E 013°11'9 8.6
2015-Aug-25 23:33N 36°49' E 013°21'9 8.7
2015-Aug-25 22:33N 36°45' E 013°31'8 8.5
2015-Aug-25 21:34N 36°42' E 013°41'9 8.4
2015-Aug-25 20:33N 36°40' E 013°51'8 8.5
2015-Aug-25 19:33N 36°37' E 014°01'9 8.7
2015-Aug-25 18:31N 36°34' E 014°12'8 8.7
2015-Aug-25 17:33N 36°32' E 014°21'9 8.5
2015-Aug-25 16:33N 36°30' E 014°32'8 8.2
2015-Aug-25 15:33N 36°30' E 014°42'8 8.2
2015-Aug-25 14:33N 36°29' E 014°52'8 8.2
2015-Aug-25 13:33N 36°29' E 015°02'8 8.2
2015-Aug-25 12:33N 36°28' E 015°13'8 8.3
2015-Aug-25 11:33N 36°28' E 015°23'8 8.3
2015-Aug-25 10:33N 36°28' E 015°33'8 8.4
2015-Aug-25 09:33N 36°28' E 015°44'10 8.9
2015-Aug-25 08:23N 36°28' E 015°57'  
2015-Aug-21 15:33N 40°58' E 028°56'0 0.0
2015-Aug-21 14:05N 40°58' E 028°56'3 3.9
2015-Aug-21 13:24N 40°59' E 028°59'  

Dump ship's entire track history